createdAt,value
2023-03-17T00:01:38.855Z,39.04
2023-03-17T00:04:10.850Z,38.85
2023-03-17T00:06:41.532Z,38.91
2023-03-17T00:09:15.570Z,39.03
2023-03-17T00:11:46.569Z,38.87
2023-03-17T00:14:20.207Z,38.63
2023-03-17T00:16:53.539Z,38.78
2023-03-17T00:19:32.723Z,38.91
2023-03-17T00:22:06.177Z,38.56
2023-03-17T00:24:36.685Z,38.75
2023-03-17T00:27:15.613Z,38.88
2023-03-17T00:29:48.938Z,38.88
2023-03-17T00:32:22.624Z,39.06
2023-03-17T00:34:55.306Z,38.76
2023-03-17T00:37:25.747Z,38.52
2023-03-17T00:39:56.384Z,38.56
2023-03-17T00:42:29.585Z,38.84
2023-03-17T00:45:02.671Z,38.96
2023-03-17T00:47:33.009Z,38.57
2023-03-17T00:50:03.300Z,38.65
2023-03-17T00:52:34.195Z,38.12
2023-03-17T00:55:04.632Z,38.33
2023-03-17T00:57:35.277Z,38.26
2023-03-17T01:00:21.783Z,38.12
2023-03-17T01:02:54.857Z,38.07
2023-03-17T01:05:27.765Z,38.07
2023-03-17T01:08:00.185Z,38.05
2023-03-17T01:10:32.806Z,38.41
2023-03-17T01:13:03.476Z,38.13
2023-03-17T01:15:37.771Z,38.25
2023-03-17T01:18:09.013Z,38.36
2023-03-17T01:20:39.121Z,38.30
2023-03-17T01:23:09.761Z,37.92
2023-03-17T01:25:42.808Z,38.08
2023-03-17T01:28:18.074Z,37.49
2023-03-17T01:30:52.548Z,37.92
2023-03-17T01:33:22.854Z,37.83
2023-03-17T01:35:54.120Z,37.65
2023-03-17T01:38:24.698Z,37.47
2023-03-17T01:40:56.856Z,37.56
2023-03-17T01:43:30.896Z,37.58
2023-03-17T01:46:32.708Z,37.32
2023-03-17T01:49:13.362Z,37.63
2023-03-17T01:51:53.089Z,37.49
2023-03-17T01:54:29.711Z,37.15
2023-03-17T01:57:04.924Z,37.29
2023-03-17T01:59:41.226Z,37.30
2023-03-17T02:02:20.106Z,37.12
2023-03-17T02:04:50.621Z,36.75
2023-03-17T02:07:22.400Z,37.54
2023-03-17T02:09:53.744Z,37.16
2023-03-17T02:12:25.424Z,36.72
2023-03-17T02:14:56.150Z,37.11
2023-03-17T02:17:31.172Z,36.86
2023-03-17T02:20:32.833Z,37.51
2023-03-17T02:23:07.079Z,36.99
2023-03-17T02:25:39.977Z,37.16
2023-03-17T02:28:14.283Z,37.18
2023-03-17T02:30:45.876Z,37.07
2023-03-17T02:33:19.085Z,37.43
2023-03-17T02:35:51.244Z,37.43
2023-03-17T02:38:24.182Z,37.92
2023-03-17T02:40:54.769Z,37.91
2023-03-17T02:43:25.675Z,37.71
2023-03-17T02:45:59.935Z,38.16
2023-03-17T02:48:30.700Z,38.04
2023-03-17T02:51:01.093Z,37.99
2023-03-17T02:53:34.424Z,38.38
2023-03-17T02:56:05.080Z,38.67
2023-03-17T02:58:35.816Z,39.09
2023-03-17T03:01:06.432Z,38.92
2023-03-17T03:03:37.240Z,39.03
2023-03-17T03:06:08.800Z,39.24
2023-03-17T03:08:41.757Z,39.61
2023-03-17T03:11:12.253Z,39.70
2023-03-17T03:13:42.615Z,39.94
2023-03-17T03:16:13.163Z,39.68
2023-03-17T03:18:43.983Z,39.72
2023-03-17T03:21:15.531Z,39.91
2023-03-17T03:23:48.631Z,39.94
2023-03-17T03:26:19.439Z,39.59
2023-03-17T03:28:49.899Z,39.54
2023-03-17T03:31:20.469Z,39.35
2023-03-17T03:33:50.906Z,39.73
2023-03-17T03:36:23.551Z,39.15
2023-03-17T03:38:56.663Z,39.52
2023-03-17T03:41:27.390Z,39.25
2023-03-17T03:43:57.710Z,39.09
2023-03-17T03:46:28.651Z,39.01
2023-03-17T03:48:59.070Z,38.96
2023-03-17T03:51:29.489Z,39.15
2023-03-17T03:54:02.454Z,38.78
2023-03-17T03:56:32.855Z,39.18
2023-03-17T03:59:03.169Z,39.00
2023-03-17T04:01:33.555Z,38.81
2023-03-17T04:04:03.812Z,38.79
2023-03-17T04:06:34.151Z,39.00
2023-03-17T04:09:10.271Z,39.03
2023-03-17T04:11:40.503Z,38.88
2023-03-17T04:14:10.772Z,38.87
2023-03-17T04:16:43.302Z,38.61
2023-03-17T04:19:14.034Z,38.67
2023-03-17T04:21:44.469Z,38.88
2023-03-17T04:24:18.871Z,38.68
2023-03-17T04:26:49.172Z,38.87
2023-03-17T04:29:20.209Z,38.66
2023-03-17T04:31:50.936Z,38.50
2023-03-17T04:34:23.147Z,38.38
2023-03-17T04:36:54.127Z,38.15
2023-03-17T04:39:27.668Z,38.64
2023-03-17T04:41:58.065Z,38.85
2023-03-17T04:44:28.439Z,38.33
2023-03-17T04:46:58.751Z,38.45
2023-03-17T04:49:29.083Z,38.39
2023-03-17T04:51:59.498Z,38.07
2023-03-17T04:54:32.475Z,38.15
2023-03-17T04:57:02.882Z,38.13
2023-03-17T04:59:33.220Z,37.72
2023-03-17T05:02:03.612Z,37.95
2023-03-17T05:04:34.053Z,38.26
2023-03-17T05:07:04.850Z,37.81
2023-03-17T05:09:40.361Z,37.49
2023-03-17T05:12:12.787Z,37.52
2023-03-17T05:14:43.131Z,37.60
2023-03-17T05:17:13.993Z,37.30
2023-03-17T05:19:44.956Z,37.55
2023-03-17T05:22:15.694Z,37.02
2023-03-17T05:24:48.839Z,37.01
2023-03-17T05:27:19.145Z,36.81
2023-03-17T05:29:49.901Z,37.64
2023-03-17T05:32:21.127Z,37.05
2023-03-17T05:34:52.134Z,37.32
2023-03-17T05:37:22.760Z,36.75
2023-03-17T05:39:55.812Z,37.00
2023-03-17T05:42:26.412Z,37.03
2023-03-17T05:44:56.774Z,36.84
2023-03-17T05:47:27.027Z,36.76
2023-03-17T05:49:57.336Z,37.31
2023-03-17T05:52:28.198Z,37.23
2023-03-17T05:55:01.253Z,37.34
2023-03-17T05:57:31.608Z,37.46
2023-03-17T06:00:02.576Z,37.56
2023-03-17T06:02:35.523Z,36.70
2023-03-17T06:05:06.387Z,36.81
2023-03-17T06:07:50.938Z,36.97
2023-03-17T06:10:27.265Z,36.68
2023-03-17T06:12:59.035Z,36.66
2023-03-17T06:15:30.107Z,36.50
2023-03-17T06:18:00.360Z,37.72
2023-03-17T06:20:31.658Z,36.51
2023-03-17T06:23:05.312Z,36.56
2023-03-17T06:25:39.438Z,36.41
2023-03-17T06:28:10.311Z,36.11
2023-03-17T06:30:41.068Z,36.03
2023-03-17T06:33:12.042Z,35.74
2023-03-17T06:35:42.605Z,35.44
2023-03-17T06:38:13.586Z,35.43
2023-03-17T06:40:46.760Z,35.58
2023-03-17T06:43:17.630Z,35.40
2023-03-17T06:45:47.991Z,35.58
2023-03-17T06:48:18.281Z,35.29
2023-03-17T06:50:50.320Z,35.26
2023-03-17T06:53:20.924Z,35.11
2023-03-17T06:55:54.063Z,35.12
2023-03-17T06:58:24.995Z,35.14
2023-03-17T07:00:56.219Z,35.09
2023-03-17T07:03:26.695Z,34.93
2023-03-17T07:05:57.748Z,34.67
2023-03-17T07:08:30.809Z,34.58
2023-03-17T07:11:04.718Z,34.45
2023-03-17T07:13:37.350Z,33.80
2023-03-17T07:16:09.571Z,33.16
2023-03-17T07:18:39.911Z,33.07
2023-03-17T07:21:10.391Z,32.54
2023-03-17T07:23:40.778Z,32.11
2023-03-17T07:26:13.990Z,31.49
2023-03-17T07:28:44.771Z,31.16
2023-03-17T07:31:15.211Z,30.41
2023-03-17T07:33:45.561Z,29.54
2023-03-17T07:36:15.979Z,29.16
2023-03-17T07:38:46.767Z,28.77
2023-03-17T07:41:19.805Z,28.36
2023-03-17T07:43:50.190Z,27.39
2023-03-17T07:46:20.975Z,26.50
2023-03-17T07:48:54.366Z,25.53
2023-03-17T07:51:28.175Z,24.61
2023-03-17T07:54:03.996Z,24.36
2023-03-17T07:56:37.109Z,23.61
2023-03-17T07:59:07.755Z,22.68
2023-03-17T08:01:38.728Z,23.54
2023-03-17T08:04:10.925Z,23.94
2023-03-17T08:06:41.893Z,23.73
2023-03-17T08:09:12.866Z,24.04
2023-03-17T08:11:46.053Z,24.96
2023-03-17T08:14:16.767Z,25.49
2023-03-17T08:16:47.612Z,25.23
2023-03-17T08:19:18.074Z,25.01
2023-03-17T08:21:48.459Z,25.37
2023-03-17T08:24:18.869Z,25.72
2023-03-17T08:26:54.216Z,25.31
2023-03-17T08:29:24.890Z,24.73
2023-03-17T08:31:55.394Z,22.62
2023-03-17T08:34:26.434Z,21.33
2023-03-17T08:36:56.838Z,19.93
2023-03-17T08:39:27.360Z,19.15
2023-03-17T08:42:00.381Z,18.48
2023-03-17T08:44:30.764Z,17.92
2023-03-17T08:47:01.682Z,17.08
2023-03-17T08:49:34.842Z,16.64
2023-03-17T08:52:05.578Z,16.98
2023-03-17T08:54:37.556Z,16.77
2023-03-17T08:57:10.609Z,16.46
2023-03-17T08:59:41.357Z,16.19
2023-03-17T09:02:15.049Z,16.32
2023-03-17T09:04:45.632Z,16.62
2023-03-17T09:07:17.176Z,16.18
2023-03-17T09:09:47.852Z,16.07
2023-03-17T09:12:20.878Z,16.35
2023-03-17T09:14:51.713Z,15.52
2023-03-17T09:17:22.052Z,16.00
2023-03-17T09:19:52.720Z,15.75
2023-03-17T09:22:23.393Z,15.39
2023-03-17T09:24:54.087Z,15.35
2023-03-17T09:27:27.644Z,15.28
2023-03-17T09:29:58.080Z,14.96
2023-03-17T09:32:28.715Z,14.76
2023-03-17T09:35:01.111Z,14.50
2023-03-17T09:37:31.471Z,14.54
2023-03-17T09:40:01.548Z,14.47
2023-03-17T09:42:50.600Z,15.04
2023-03-17T09:45:34.689Z,15.64
2023-03-17T09:48:51.042Z,15.14
2023-03-17T09:51:22.543Z,15.12
2023-03-17T09:53:59.987Z,15.05
2023-03-17T09:56:32.495Z,14.75
2023-03-17T09:59:10.801Z,15.29
2023-03-17T10:01:45.438Z,14.92
2023-03-17T10:04:18.919Z,14.76
2023-03-17T10:06:50.363Z,15.01
2023-03-17T10:09:28.007Z,14.67
2023-03-17T10:12:11.433Z,14.75
2023-03-17T10:14:54.714Z,15.17
2023-03-17T10:17:29.196Z,15.55
2023-03-17T10:20:05.100Z,15.40
2023-03-17T10:22:43.096Z,15.31
2023-03-17T10:25:19.162Z,15.40
2023-03-17T10:27:56.048Z,16.07
2023-03-17T10:30:30.112Z,15.85
2023-03-17T10:33:07.087Z,15.44
2023-03-17T10:35:39.662Z,15.14
2023-03-17T10:38:19.607Z,15.36
2023-03-17T10:40:58.953Z,15.43
2023-03-17T10:43:35.647Z,14.90
2023-03-17T10:46:17.229Z,15.60
2023-03-17T10:48:55.374Z,15.08
2023-03-17T10:51:37.052Z,15.79
2023-03-17T10:54:13.534Z,15.96
2023-03-17T10:56:45.463Z,15.87
2023-03-17T11:02:04.535Z,16.22
2023-03-17T11:04:38.744Z,15.18
2023-03-17T11:07:13.008Z,15.40
2023-03-17T11:09:43.317Z,15.04
2023-03-17T11:12:29.504Z,15.17
2023-03-17T11:15:05.006Z,15.48
2023-03-17T11:17:46.829Z,16.29
2023-03-17T11:20:45.470Z,15.44
2023-03-17T11:23:29.180Z,15.30
2023-03-17T11:26:14.849Z,15.02
2023-03-17T11:28:53.540Z,14.93
2023-03-17T11:31:33.667Z,14.72
2023-03-17T11:34:12.124Z,14.08
2023-03-17T11:36:54.514Z,13.80
2023-03-17T11:39:31.427Z,13.02
2023-03-17T11:42:11.588Z,13.34
2023-03-17T11:45:13.014Z,12.62
2023-03-17T11:48:09.841Z,13.24
2023-03-17T11:50:55.172Z,12.93
2023-03-17T11:53:47.976Z,13.17
2023-03-17T11:56:24.201Z,13.27
2023-03-17T11:59:03.402Z,13.39
2023-03-17T12:01:51.362Z,13.87
2023-03-17T12:04:30.856Z,14.09
2023-03-17T12:07:14.049Z,13.90
2023-03-17T12:09:49.316Z,14.07
2023-03-17T12:12:29.520Z,14.43
2023-03-17T12:15:02.220Z,14.29
2023-03-17T12:17:39.625Z,14.04
2023-03-17T12:20:19.080Z,14.30
2023-03-17T12:22:59.068Z,14.30
2023-03-17T12:25:35.598Z,14.96
2023-03-17T12:28:14.024Z,15.41
2023-03-17T12:30:52.469Z,14.97
2023-03-17T12:33:31.428Z,14.95
2023-03-17T12:36:02.802Z,15.03
2023-03-17T12:38:43.391Z,15.28
2023-03-17T12:41:40.506Z,15.82
2023-03-17T12:44:32.041Z,16.37
2023-03-17T12:47:46.739Z,16.68
2023-03-17T12:51:08.477Z,16.96
2023-03-17T12:53:44.877Z,16.83
2023-03-17T12:56:23.729Z,16.99
2023-03-17T12:58:56.189Z,17.30
2023-03-17T13:01:35.072Z,16.68
2023-03-17T13:04:18.967Z,17.33
2023-03-17T13:07:02.641Z,17.13
2023-03-17T13:09:53.248Z,17.33
2023-03-17T13:13:00.492Z,17.16
2023-03-17T13:15:58.920Z,16.80
2023-03-17T13:18:53.809Z,16.61
2023-03-17T13:21:30.805Z,15.92
2023-03-17T13:24:26.294Z,14.94
2023-03-17T13:27:02.068Z,14.50
2023-03-17T13:29:48.792Z,14.56
2023-03-17T13:32:38.282Z,15.76
2023-03-17T13:35:30.744Z,15.61
2023-03-17T13:38:40.332Z,15.42
2023-03-17T13:41:35.136Z,15.81
2023-03-17T13:44:29.165Z,15.99
2023-03-17T13:47:19.898Z,16.18
2023-03-17T13:49:53.018Z,16.10
2023-03-17T13:52:33.280Z,16.28
2023-03-17T13:55:33.005Z,16.62
2023-03-17T13:58:28.965Z,17.28
2023-03-17T14:01:09.832Z,17.62
2023-03-17T14:03:49.235Z,17.38
2023-03-17T14:06:23.101Z,17.65
2023-03-17T14:08:57.966Z,17.80
2023-03-17T14:11:35.587Z,18.18
2023-03-17T14:14:32.583Z,17.71
2023-03-17T14:17:15.050Z,17.53
2023-03-17T14:20:06.422Z,17.66
2023-03-17T14:22:45.263Z,17.49
2023-03-17T14:25:21.193Z,18.02
2023-03-17T14:27:56.374Z,17.05
2023-03-17T14:30:29.761Z,16.32
2023-03-17T14:33:08.383Z,16.41
2023-03-17T14:35:43.337Z,18.30
2023-03-17T14:38:23.013Z,19.61
2023-03-17T14:41:02.987Z,20.74
2023-03-17T14:43:34.560Z,21.63
2023-03-17T14:46:07.727Z,22.30
2023-03-17T14:48:44.693Z,23.06
2023-03-17T14:51:29.146Z,23.44
2023-03-17T14:54:04.472Z,24.29
2023-03-17T14:56:40.422Z,24.99
2023-03-17T14:59:21.901Z,25.33
2023-03-17T15:01:57.847Z,26.07
2023-03-17T15:04:35.538Z,26.76
2023-03-17T15:07:08.697Z,27.26
2023-03-17T15:09:43.506Z,27.68
2023-03-17T15:12:21.212Z,28.13
2023-03-17T15:14:56.451Z,28.61
2023-03-17T15:17:32.159Z,28.74
2023-03-17T15:20:09.207Z,29.03
2023-03-17T15:22:46.118Z,28.98
2023-03-17T15:25:29.288Z,29.14
2023-03-17T15:27:59.641Z,29.16
2023-03-17T15:30:44.282Z,28.80
2023-03-17T15:33:25.822Z,29.21
2023-03-17T15:36:00.248Z,28.94
2023-03-17T15:38:31.557Z,28.84
2023-03-17T15:41:02.120Z,28.86
2023-03-17T15:43:32.473Z,28.83
2023-03-17T15:46:07.105Z,29.07
2023-03-17T15:48:39.094Z,29.33
2023-03-17T15:51:13.973Z,29.35
2023-03-17T15:53:44.344Z,29.02
2023-03-17T15:56:20.770Z,29.59
2023-03-17T15:58:52.584Z,29.56
2023-03-17T16:01:26.506Z,30.18
2023-03-17T16:03:58.250Z,30.61
2023-03-17T16:06:31.460Z,30.92
2023-03-17T16:09:01.876Z,31.40
2023-03-17T16:11:34.601Z,31.65
2023-03-17T16:14:05.019Z,32.04
2023-03-17T16:16:40.901Z,32.53
2023-03-17T16:19:17.841Z,33.13
2023-03-17T16:21:50.909Z,33.32
2023-03-17T16:24:23.295Z,33.47
2023-03-17T16:26:53.781Z,33.46
2023-03-17T16:29:24.774Z,33.82
2023-03-17T16:31:54.961Z,34.22
2023-03-17T16:34:26.836Z,34.62
2023-03-17T16:36:59.886Z,34.90
2023-03-17T16:39:30.279Z,35.20
2023-03-17T16:42:00.796Z,35.54
2023-03-17T16:44:31.576Z,35.49
2023-03-17T16:47:02.125Z,35.34
2023-03-17T16:49:32.655Z,35.67
2023-03-17T16:52:05.820Z,36.09
2023-03-17T16:54:36.476Z,36.50
2023-03-17T16:57:08.115Z,36.21
2023-03-17T16:59:38.674Z,36.58
2023-03-17T17:02:18.621Z,36.73
2023-03-17T17:04:49.128Z,37.38
2023-03-17T17:07:22.272Z,37.47
2023-03-17T17:09:52.624Z,37.27
2023-03-17T17:12:22.974Z,37.50
2023-03-17T17:14:53.348Z,37.70
2023-03-17T17:17:23.844Z,37.92
2023-03-17T17:19:54.252Z,37.90
2023-03-17T17:22:27.333Z,37.74
2023-03-17T17:24:57.831Z,37.89
2023-03-17T17:27:28.286Z,37.83
2023-03-17T17:29:58.749Z,38.00
2023-03-17T17:32:29.477Z,38.03
2023-03-17T17:34:59.951Z,38.05
2023-03-17T17:37:33.365Z,38.09
2023-03-17T17:40:03.933Z,38.04
2023-03-17T17:42:34.601Z,37.59
2023-03-17T17:45:05.060Z,37.71
2023-03-17T17:47:35.705Z,37.49
2023-03-17T17:50:06.999Z,37.47
2023-03-17T17:52:40.244Z,37.81
2023-03-17T17:55:11.599Z,38.19
2023-03-17T17:57:42.022Z,37.71
2023-03-17T18:00:18.790Z,37.75
2023-03-17T18:02:49.259Z,37.95
2023-03-17T18:05:19.941Z,38.00
2023-03-17T18:07:53.258Z,38.07
2023-03-17T18:10:26.855Z,38.16
2023-03-17T18:12:57.612Z,38.33
2023-03-17T18:15:29.734Z,38.30
2023-03-17T18:18:00.139Z,38.54
2023-03-17T18:20:31.543Z,38.77
2023-03-17T18:23:04.826Z,38.85
2023-03-17T18:25:36.072Z,38.87
2023-03-17T18:28:06.591Z,38.47
2023-03-17T18:30:37.608Z,38.68
2023-03-17T18:33:12.298Z,38.75
2023-03-17T18:35:43.433Z,39.26
2023-03-17T18:38:16.643Z,38.97
2023-03-17T18:40:47.840Z,39.02
2023-03-17T18:43:18.213Z,38.71
2023-03-17T18:45:48.697Z,39.15
2023-03-17T18:48:19.469Z,39.23
2023-03-17T18:50:50.869Z,39.26
2023-03-17T18:53:23.879Z,39.67
2023-03-17T18:55:54.372Z,39.62
2023-03-17T18:58:24.780Z,39.42
2023-03-17T19:00:55.872Z,39.55
2023-03-17T19:03:26.758Z,39.87
2023-03-17T19:05:58.114Z,39.98
2023-03-17T19:08:31.256Z,39.95
2023-03-17T19:11:01.804Z,39.96
2023-03-17T19:13:34.650Z,40.08
2023-03-17T19:16:38.012Z,40.18
2023-03-17T19:19:42.934Z,39.99
2023-03-17T19:22:20.733Z,39.83
2023-03-17T19:24:57.654Z,40.12
2023-03-17T19:27:28.721Z,40.17
2023-03-17T19:30:08.366Z,40.06
2023-03-17T19:32:39.420Z,40.15
2023-03-17T19:35:23.266Z,40.25
2023-03-17T19:38:17.934Z,40.36
2023-03-17T19:40:54.912Z,40.31
2023-03-17T19:43:40.325Z,40.29
2023-03-17T19:46:21.462Z,40.22
2023-03-17T19:48:53.682Z,40.33
2023-03-17T19:51:26.081Z,40.34
2023-03-17T19:53:57.130Z,40.41
2023-03-17T19:56:30.333Z,40.36
2023-03-17T19:59:00.750Z,40.63
2023-03-17T20:01:32.260Z,40.71
2023-03-17T20:04:11.372Z,40.64
2023-03-17T20:06:58.223Z,40.60
2023-03-17T20:09:39.786Z,40.42
2023-03-17T20:12:16.232Z,40.33
2023-03-17T20:14:51.828Z,40.27
2023-03-17T20:17:22.560Z,40.27
2023-03-17T20:19:54.149Z,40.30
2023-03-17T20:22:27.330Z,40.35
2023-03-17T20:24:58.271Z,40.17
2023-03-17T20:27:32.309Z,40.19
2023-03-17T20:30:17.618Z,40.51
2023-03-17T20:32:49.747Z,40.64
2023-03-17T20:35:23.237Z,40.85
2023-03-17T20:37:57.034Z,40.69
2023-03-17T20:40:27.731Z,40.99
2023-03-17T20:43:01.094Z,41.13
2023-03-17T20:45:32.069Z,41.15
2023-03-17T20:48:03.594Z,41.16
2023-03-17T20:50:34.524Z,41.12
2023-03-17T20:53:05.126Z,41.06
2023-03-17T20:55:37.655Z,41.11
2023-03-17T20:58:11.753Z,41.28
2023-03-17T21:00:42.218Z,41.03
2023-03-17T21:03:12.890Z,41.10
2023-03-17T21:05:43.655Z,41.20
2023-03-17T21:08:14.332Z,41.18
2023-03-17T21:10:44.886Z,40.80
2023-03-17T21:13:18.204Z,41.23
2023-03-17T21:15:48.906Z,41.19
2023-03-17T21:18:19.553Z,41.21
2023-03-17T21:20:50.133Z,41.20
2023-03-17T21:23:20.575Z,41.08
2023-03-17T21:25:51.033Z,41.38
2023-03-17T21:28:24.247Z,41.09
2023-03-17T21:30:57.689Z,41.25
2023-03-17T21:33:28.033Z,41.21
2023-03-17T21:35:58.975Z,41.04
2023-03-17T21:38:31.210Z,41.09
2023-03-17T21:41:02.490Z,40.92
2023-03-17T21:43:35.522Z,40.97
2023-03-17T21:46:05.987Z,41.27
2023-03-17T21:48:37.642Z,41.04
2023-03-17T21:51:08.732Z,40.88
2023-03-17T21:53:38.801Z,41.13
2023-03-17T21:56:12.354Z,41.16
2023-03-17T21:58:46.148Z,41.26
2023-03-17T22:01:17.495Z,41.27
2023-03-17T22:03:48.077Z,41.22
2023-03-17T22:06:19.759Z,40.99
2023-03-17T22:08:51.900Z,41.25
2023-03-17T22:11:22.941Z,41.17
2023-03-17T22:13:55.945Z,41.32
2023-03-17T22:16:26.629Z,41.48
2023-03-17T22:18:57.327Z,41.24
2023-03-17T22:21:29.121Z,41.08
2023-03-17T22:24:02.424Z,40.95
2023-03-17T22:26:32.811Z,41.01
2023-03-17T22:29:07.854Z,40.94
2023-03-17T22:31:38.315Z,41.10
2023-03-17T22:34:10.063Z,40.98
2023-03-17T22:36:41.296Z,40.91
2023-03-17T22:39:12.781Z,40.86
2023-03-17T22:41:43.186Z,40.84
2023-03-17T22:44:16.185Z,40.76
2023-03-17T22:46:46.620Z,40.90
2023-03-17T22:49:17.104Z,40.82
2023-03-17T22:51:48.355Z,40.93
2023-03-17T22:54:18.834Z,40.93
2023-03-17T22:56:49.446Z,40.48
2023-03-17T22:59:22.525Z,40.41
2023-03-17T23:01:52.908Z,40.36
2023-03-17T23:04:23.333Z,40.25
2023-03-17T23:06:54.059Z,40.10
2023-03-17T23:09:24.705Z,40.09
2023-03-17T23:11:55.210Z,39.92
2023-03-17T23:14:28.422Z,39.99
2023-03-17T23:16:58.838Z,39.82
2023-03-17T23:19:31.930Z,39.99
2023-03-17T23:22:02.366Z,39.81
2023-03-17T23:24:33.493Z,39.79
2023-03-17T23:27:03.882Z,39.74
2023-03-17T23:29:36.856Z,39.69
2023-03-17T23:32:08.449Z,39.50
2023-03-17T23:34:39.748Z,39.43
2023-03-17T23:37:10.557Z,39.16
2023-03-17T23:39:41.444Z,39.20
2023-03-17T23:42:12.349Z,39.50
2023-03-17T23:44:45.485Z,39.21
2023-03-17T23:47:17.002Z,39.21
2023-03-17T23:49:47.377Z,39.12
2023-03-17T23:52:18.428Z,39.12
2023-03-17T23:54:48.533Z,39.01
2023-03-17T23:57:19.535Z,39.14
2023-03-17T23:59:52.488Z,39.38
